Time;durP1;ratioP1;P1;durP2;ratioP2;P2;SDS_P1;SDS_P2;PMS_P1;PMS_P2;Temp;Humidity;BMP_temperature;BMP_pressure;BME280_temperature;BME280_humidity;BME280_pressure;Samples;Min_cycle;Max_cycle;Signal;HPM_P1;HPM_P2
2023/03/22 00:01:52;;;;;;;6.83;4.70;;;;;;;10.33;100.00;94826.59;5020262;28;20237;-74
2023/03/22 00:04:18;;;;;;;6.90;4.53;;;;;;;10.41;100.00;94828.22;5018312;28;20225;-74
2023/03/22 00:06:44;;;;;;;7.57;4.37;;;;;;;10.43;100.00;94826.22;5033840;28;20741;-72
2023/03/22 00:09:09;;;;;;;6.97;4.33;;;;;;;10.33;100.00;94817.94;5035186;28;20905;-73
2023/03/22 00:11:35;;;;;;;8.07;4.60;;;;;;;10.35;100.00;94829.81;5013299;28;20307;-74
2023/03/22 00:14:00;;;;;;;7.27;4.63;;;;;;;10.37;100.00;94825.19;5016938;28;20230;-74
2023/03/22 00:16:26;;;;;;;9.07;4.73;;;;;;;10.24;100.00;94821.78;5020827;28;20237;-74
2023/03/22 00:18:51;;;;;;;8.23;4.80;;;;;;;10.18;100.00;94822.53;5019395;28;20229;-74
2023/03/22 00:21:17;;;;;;;8.83;4.60;;;;;;;10.30;100.00;94824.38;5032201;28;20226;-74
2023/03/22 00:23:43;;;;;;;6.73;4.63;;;;;;;10.33;100.00;94824.00;5030506;28;20221;-74
2023/03/22 00:26:09;;;;;;;7.30;5.00;;;;;;;10.38;100.00;94824.19;5012700;28;20229;-74
2023/03/22 00:28:35;;;;;;;8.00;5.00;;;;;;;10.29;100.00;94814.13;5030119;28;20313;-74
2023/03/22 00:31:00;;;;;;;9.40;5.30;;;;;;;10.28;100.00;94817.72;5007282;28;20327;-74
2023/03/22 00:33:29;;;;;;;10.07;5.20;;;;;;;10.22;100.00;94811.50;5003142;28;20237;-74
2023/03/22 00:36:05;;;;;;;7.50;5.00;;;;;;;10.11;100.00;94812.91;5019780;28;20230;-74
2023/03/22 00:38:37;;;;;;;7.60;4.93;;;;;;;10.19;100.00;94811.91;5017761;28;20313;-74
2023/03/22 00:41:14;;;;;;;6.90;4.93;;;;;;;10.21;100.00;94815.13;5024281;28;20253;-74
2023/03/22 00:43:40;;;;;;;7.07;5.20;;;;;;;10.20;100.00;94810.88;5019144;28;20230;-74
2023/03/22 00:46:06;;;;;;;7.17;5.30;;;;;;;10.21;100.00;94809.88;5012663;28;20229;-74
2023/03/22 00:48:31;;;;;;;7.10;5.10;;;;;;;10.24;100.00;94806.06;5005486;28;20246;-74
2023/03/22 00:50:57;;;;;;;6.93;5.00;;;;;;;10.09;100.00;94806.22;5006849;28;20252;-73
2023/03/22 00:53:22;;;;;;;7.10;5.10;;;;;;;10.12;100.00;94808.47;5000409;28;20247;-74
2023/03/22 00:55:48;;;;;;;6.93;4.80;;;;;;;10.15;100.00;94808.06;5018374;28;20232;-74
2023/03/22 00:58:14;;;;;;;8.23;5.03;;;;;;;10.10;100.00;94798.16;5007640;28;20256;-74
2023/03/22 01:00:40;;;;;;;9.63;5.30;;;;;;;10.05;100.00;94811.03;5030141;28;20226;-74
2023/03/22 01:03:05;;;;;;;8.17;4.80;;;;;;;10.05;100.00;94803.19;5013684;28;20256;-74
2023/03/22 01:05:32;;;;;;;7.10;4.50;;;;;;;10.02;100.00;94798.38;5031039;28;20292;-74
2023/03/22 01:08:05;;;;;;;7.10;4.80;;;;;;;10.04;100.00;94808.63;5005520;28;20236;-74
2023/03/22 01:10:30;;;;;;;6.77;4.70;;;;;;;10.05;100.00;94802.41;5007680;28;20240;-73
2023/03/22 01:12:56;;;;;;;8.17;5.10;;;;;;;10.11;100.00;94799.81;5018773;28;20225;-73
2023/03/22 01:15:22;;;;;;;6.80;4.47;;;;;;;10.10;100.00;94792.16;5006553;28;20307;-73
2023/03/22 01:17:47;;;;;;;6.83;4.90;;;;;;;10.13;100.00;94786.53;5007962;28;20234;-74
2023/03/22 01:20:13;;;;;;;8.43;5.10;;;;;;;10.11;100.00;94786.75;5017146;28;20920;-73
2023/03/22 01:22:38;;;;;;;8.10;5.20;;;;;;;10.10;100.00;94792.94;5007413;28;20715;-73
2023/03/22 01:25:04;;;;;;;8.30;5.30;;;;;;;10.10;100.00;94786.94;5036021;28;20664;-74
2023/03/22 01:27:30;;;;;;;8.87;5.20;;;;;;;10.03;100.00;94786.13;5013307;28;20236;-74
2023/03/22 01:29:56;;;;;;;7.30;4.87;;;;;;;10.06;100.00;94783.88;5023579;28;20275;-73
2023/03/22 01:32:21;;;;;;;8.90;5.30;;;;;;;10.06;100.00;94780.47;5003400;28;20236;-74
2023/03/22 01:34:47;;;;;;;7.73;5.10;;;;;;;10.07;100.00;94779.47;5000966;28;20228;-74
2023/03/22 01:37:12;;;;;;;7.60;5.03;;;;;;;10.05;100.00;94773.63;4999606;28;20233;-74
2023/03/22 01:39:38;;;;;;;8.77;5.40;;;;;;;10.09;100.00;94777.47;5015593;28;20217;-74
2023/03/22 01:42:04;;;;;;;8.40;5.03;;;;;;;10.03;100.00;94779.06;5015290;28;20317;-74
2023/03/22 01:44:30;;;;;;;8.83;5.20;;;;;;;9.95;100.00;94778.44;4997145;28;20225;-75
2023/03/22 01:46:55;;;;;;;6.60;4.60;;;;;;;9.83;100.00;94782.66;5006844;28;20240;-74
2023/03/22 01:49:22;;;;;;;6.20;4.50;;;;;;;9.70;100.00;94777.38;5004367;28;20234;-73
2023/03/22 01:51:49;;;;;;;7.53;4.63;;;;;;;9.86;100.00;94775.19;5031179;28;20749;-73
2023/03/22 01:54:35;;;;;;;6.47;4.53;;;;;;;9.86;100.00;94777.03;5013366;28;20259;-74
2023/03/22 01:57:01;;;;;;;6.93;4.70;;;;;;;9.84;100.00;94773.81;5017102;28;20288;-74
2023/03/22 01:59:26;;;;;;;7.77;4.50;;;;;;;9.88;100.00;94777.63;5017519;28;20617;-73
2023/03/22 02:01:52;;;;;;;7.23;4.70;;;;;;;9.80;100.00;94775.19;5007604;28;20232;-73
2023/03/22 02:04:19;;;;;;;8.63;4.73;;;;;;;9.83;100.00;94778.22;4998192;28;20237;-73
2023/03/22 02:06:45;;;;;;;9.53;5.27;;;;;;;9.69;100.00;94773.16;5030069;28;20659;-74
2023/03/22 02:09:12;;;;;;;9.77;5.07;;;;;;;9.62;100.00;94780.19;5008038;28;20233;-73
2023/03/22 02:11:41;;;;;;;9.27;5.70;;;;;;;9.72;100.00;94780.63;5022496;28;20313;-74
2023/03/22 02:14:19;;;;;;;8.23;5.40;;;;;;;9.72;100.00;94776.19;5039521;28;21165;-74
2023/03/22 02:16:48;;;;;;;9.07;5.77;;;;;;;9.75;100.00;94780.22;5028281;28;20249;-74
2023/03/22 02:19:44;;;;;;;10.00;6.07;;;;;;;9.75;100.00;94782.81;5009056;28;20233;-74
2023/03/22 02:22:37;;;;;;;12.90;6.37;;;;;;;9.77;100.00;94772.97;5006814;28;20237;-74
2023/03/22 02:25:20;;;;;;;10.07;6.97;;;;;;;9.63;100.00;94777.38;5031410;28;20238;-74
2023/03/22 02:28:07;;;;;;;9.90;6.20;;;;;;;9.66;100.00;94771.75;5014805;28;20233;-74
2023/03/22 02:30:38;;;;;;;10.57;6.33;;;;;;;9.68;100.00;94779.38;5019921;28;20741;-74
2023/03/22 02:33:13;;;;;;;9.70;6.37;;;;;;;9.69;100.00;94783.63;5028887;28;20730;-73
2023/03/22 02:35:45;;;;;;;10.17;6.67;;;;;;;9.71;100.00;94789.44;5015050;28;20664;-73
2023/03/22 02:38:16;;;;;;;12.30;6.87;;;;;;;9.72;100.00;94785.84;5028145;28;20232;-74
2023/03/22 02:40:56;;;;;;;10.43;6.37;;;;;;;9.67;100.00;94786.44;5030473;28;21231;-74
2023/03/22 02:43:33;;;;;;;11.10;6.40;;;;;;;9.72;100.00;94796.31;5030417;28;20265;-73
2023/03/22 02:46:04;;;;;;;10.57;6.90;;;;;;;9.76;100.00;94794.91;5035038;28;20236;-74
2023/03/22 02:49:08;;;;;;;8.33;5.73;;;;;;;9.69;100.00;94794.06;5027673;28;20269;-73
2023/03/22 02:51:40;;;;;;;8.87;5.77;;;;;;;9.75;100.00;94799.31;5019829;28;20286;-74
2023/03/22 02:54:17;;;;;;;7.70;5.37;;;;;;;9.70;100.00;94793.88;5016417;28;20225;-73
2023/03/22 02:56:48;;;;;;;8.87;5.20;;;;;;;9.68;100.00;94789.84;5030949;28;20237;-74
2023/03/22 02:59:14;;;;;;;8.33;5.50;;;;;;;9.73;100.00;94795.28;4996624;28;20230;-74
2023/03/22 03:01:54;;;;;;;7.53;5.30;;;;;;;9.74;100.00;94797.72;4982634;28;20295;-73
2023/03/22 03:04:25;;;;;;;6.97;5.00;;;;;;;9.74;100.00;94802.13;4996453;28;20225;-73
2023/03/22 03:06:51;;;;;;;8.07;5.37;;;;;;;9.81;100.00;94798.53;4996706;28;20245;-73
2023/03/22 03:09:17;;;;;;;8.13;5.33;;;;;;;9.84;100.00;94802.56;4988754;28;20365;-73
2023/03/22 03:11:50;;;;;;;8.43;4.90;;;;;;;9.70;100.00;94798.28;4981251;28;20243;-74
2023/03/22 03:14:25;;;;;;;6.50;4.63;;;;;;;9.68;100.00;94800.28;5014987;28;20919;-74
2023/03/22 03:17:02;;;;;;;6.77;4.90;;;;;;;9.69;100.00;94796.69;5001603;28;20237;-74
2023/03/22 03:20:08;;;;;;;6.63;4.73;;;;;;;9.60;100.00;94797.88;5020059;28;20260;-73
2023/03/22 03:22:43;;;;;;;6.40;4.70;;;;;;;9.63;100.00;94803.50;5041345;28;20233;-73
2023/03/22 03:25:17;;;;;;;7.60;4.90;;;;;;;9.69;100.00;94797.50;4996155;28;20226;-74
2023/03/22 03:27:49;;;;;;;6.90;4.80;;;;;;;9.70;100.00;94804.31;5051074;28;20287;-74
2023/03/22 03:30:19;;;;;;;6.50;4.60;;;;;;;9.70;100.00;94806.13;5003828;28;20649;-73
2023/03/22 03:32:51;;;;;;;5.93;4.37;;;;;;;9.73;100.00;94803.13;5017425;28;20249;-74
2023/03/22 03:35:24;;;;;;;7.37;5.00;;;;;;;9.67;100.00;94807.34;5017006;28;20226;-73
2023/03/22 03:37:56;;;;;;;6.87;4.30;;;;;;;9.67;100.00;94806.53;5002461;28;20698;-73
2023/03/22 03:40:23;;;;;;;5.57;3.67;;;;;;;9.67;100.00;94804.72;5015213;28;20232;-74
2023/03/22 03:42:50;;;;;;;5.70;3.67;;;;;;;9.70;100.00;94812.16;5002498;28;20257;-73
2023/03/22 03:45:16;;;;;;;5.00;3.60;;;;;;;9.73;100.00;94805.75;5019051;28;20796;-74
2023/03/22 03:47:42;;;;;;;4.77;3.77;;;;;;;9.73;100.00;94806.53;5034252;28;20271;-73
2023/03/22 03:50:08;;;;;;;5.30;3.50;;;;;;;9.67;100.00;94807.34;5006828;28;20329;-74
2023/03/22 03:52:34;;;;;;;4.70;3.57;;;;;;;9.75;100.00;94814.19;5014572;28;20718;-73
2023/03/22 03:55:00;;;;;;;5.30;3.43;;;;;;;9.75;100.00;94816.78;5002408;28;20225;-73
2023/03/22 03:57:25;;;;;;;4.40;3.40;;;;;;;9.73;100.00;94816.19;5030097;28;20249;-73
2023/03/22 03:59:51;;;;;;;4.10;3.20;;;;;;;9.70;100.00;94814.78;5034712;28;20710;-74
2023/03/22 04:02:16;;;;;;;5.57;3.40;;;;;;;9.68;100.00;94815.97;5016781;28;20317;-74
2023/03/22 04:04:42;;;;;;;4.97;3.60;;;;;;;9.66;100.00;94815.38;5019091;28;20225;-73
2023/03/22 04:07:07;;;;;;;4.97;3.40;;;;;;;9.60;100.00;94811.72;5015279;28;20236;-73
2023/03/22 04:09:35;;;;;;;4.40;3.40;;;;;;;9.61;100.00;94818.56;5024328;28;20312;-74
2023/03/22 04:12:00;;;;;;;5.07;3.27;;;;;;;9.57;100.00;94819.97;5030120;28;20770;-73
2023/03/22 04:14:25;;;;;;;5.73;3.33;;;;;;;9.60;100.00;94826.63;5000821;28;20232;-73
2023/03/22 04:16:51;;;;;;;4.37;3.10;;;;;;;9.55;100.00;94824.59;5012335;28;20230;-74
2023/03/22 04:19:17;;;;;;;4.73;3.10;;;;;;;9.59;100.00;94817.97;5015164;28;20248;-74
2023/03/22 04:21:42;;;;;;;5.10;3.30;;;;;;;9.60;100.00;94824.78;5033422;28;20240;-74
2023/03/22 04:24:08;;;;;;;4.57;3.23;;;;;;;9.47;100.00;94827.34;5013414;28;20226;-74
2023/03/22 04:26:33;;;;;;;3.93;3.00;;;;;;;9.47;100.00;94827.34;5005859;28;20229;-74
2023/03/22 04:28:59;;;;;;;5.33;3.47;;;;;;;9.59;100.00;94825.00;5015751;28;20271;-74
2023/03/22 04:31:24;;;;;;;3.40;2.93;;;;;;;9.47;100.00;94833.41;5013173;28;20237;-75
2023/03/22 04:33:53;;;;;;;4.20;3.10;;;;;;;9.51;100.00;94831.19;4993168;28;20225;-74
2023/03/22 04:36:19;;;;;;;5.37;3.43;;;;;;;9.55;100.00;94834.22;5013310;28;20230;-74
2023/03/22 04:38:45;;;;;;;5.90;3.23;;;;;;;9.49;100.00;94830.56;5004146;28;20618;-73
2023/03/22 04:41:10;;;;;;;3.83;3.10;;;;;;;9.53;100.00;94833.63;5015087;28;20232;-74
2023/03/22 04:43:38;;;;;;;5.00;3.23;;;;;;;9.54;100.00;94835.22;5011692;28;20312;-74
2023/03/22 04:46:11;;;;;;;4.37;3.30;;;;;;;9.44;100.00;94841.63;5015077;28;20237;-75
2023/03/22 04:48:38;;;;;;;4.87;3.50;;;;;;;9.48;100.00;94837.59;5008432;28;20738;-73
2023/03/22 04:51:07;;;;;;;5.40;3.67;;;;;;;9.48;100.00;94842.03;4973813;28;20292;-75
2023/03/22 04:53:37;;;;;;;4.87;3.73;;;;;;;9.55;100.00;94842.88;5002479;28;20237;-74
2023/03/22 04:56:06;;;;;;;5.17;3.60;;;;;;;9.59;100.00;94849.31;4973277;28;20333;-73
2023/03/22 04:58:33;;;;;;;5.70;3.90;;;;;;;9.58;100.00;94857.34;4986302;28;20344;-74
2023/03/22 05:00:58;;;;;;;5.03;3.67;;;;;;;9.55;100.00;94853.31;4988688;28;20248;-72
2023/03/22 05:03:24;;;;;;;5.73;3.80;;;;;;;9.54;100.00;94853.50;5005239;28;21055;-74
2023/03/22 05:05:55;;;;;;;4.70;3.60;;;;;;;9.47;100.00;94854.28;4985198;28;20312;-73
2023/03/22 05:08:21;;;;;;;4.87;3.67;;;;;;;9.52;100.00;94855.50;4977943;28;20291;-72
2023/03/22 05:10:46;;;;;;;8.53;4.23;;;;;;;9.58;100.00;94854.75;5024002;28;20218;-74
2023/03/22 05:13:12;;;;;;;7.03;4.47;;;;;;;9.59;100.00;94858.97;4986889;28;20234;-74
2023/03/22 05:15:38;;;;;;;5.90;4.40;;;;;;;9.64;100.00;94857.38;5006035;28;20316;-74
2023/03/22 05:18:04;;;;;;;6.70;4.00;;;;;;;9.63;100.00;94871.44;5022786;28;20307;-73
2023/03/22 05:20:29;;;;;;;7.40;4.40;;;;;;;9.57;100.00;94864.38;4989246;28;20324;-72
2023/03/22 05:22:55;;;;;;;6.00;4.30;;;;;;;9.61;100.00;94870.00;5004490;28;20231;-74
2023/03/22 05:25:21;;;;;;;5.97;4.30;;;;;;;9.60;100.00;94871.81;4995023;28;20609;-74
2023/03/22 05:27:49;;;;;;;6.80;4.57;;;;;;;9.61;100.00;94878.66;4968406;28;20234;-73
2023/03/22 05:30:14;;;;;;;6.00;4.13;;;;;;;9.58;100.00;94878.25;4966100;28;20301;-74
2023/03/22 05:32:42;;;;;;;5.83;4.00;;;;;;;9.65;100.00;94879.09;4990519;28;20222;-74
2023/03/22 05:35:08;;;;;;;5.47;4.03;;;;;;;9.54;100.00;94882.25;5008694;28;20637;-74
2023/03/22 05:37:34;;;;;;;6.57;4.20;;;;;;;9.52;100.00;94881.63;4972920;28;20293;-73
2023/03/22 05:39:59;;;;;;;5.27;3.97;;;;;;;9.53;100.00;94885.88;4974057;28;20218;-74
2023/03/22 05:42:25;;;;;;;6.20;4.00;;;;;;;9.49;100.00;94878.41;4977282;28;20245;-73
2023/03/22 05:44:51;;;;;;;6.20;4.23;;;;;;;9.54;100.00;94882.25;4978823;28;20237;-74
2023/03/22 05:47:16;;;;;;;6.20;4.20;;;;;;;9.57;100.00;94884.47;4979658;28;20252;-73
2023/03/22 05:49:41;;;;;;;6.23;4.00;;;;;;;9.48;100.00;94882.00;4972558;28;20226;-73
2023/03/22 05:52:07;;;;;;;5.53;4.17;;;;;;;9.64;100.00;94887.91;4978936;28;20231;-73
2023/03/22 05:54:33;;;;;;;5.37;3.90;;;;;;;9.57;100.00;94887.09;5018856;28;20682;-73
2023/03/22 05:56:58;;;;;;;6.20;4.00;;;;;;;9.65;100.00;94890.31;4997955;28;20237;-74
2023/03/22 05:59:24;;;;;;;5.73;4.20;;;;;;;9.76;100.00;94896.81;5003731;28;20698;-73
2023/03/22 06:01:49;;;;;;;6.87;4.10;;;;;;;9.69;100.00;94901.22;4995738;28;20626;-74
2023/03/22 06:04:15;;;;;;;6.13;4.07;;;;;;;9.81;100.00;94899.66;5005467;28;20230;-72
2023/03/22 06:06:40;;;;;;;5.40;4.30;;;;;;;9.76;100.00;94902.06;5008158;28;20252;-74
2023/03/22 06:09:06;;;;;;;7.80;4.77;;;;;;;9.73;100.00;94907.66;4998449;28;20230;-74
2023/03/22 06:11:34;;;;;;;7.43;4.80;;;;;;;9.69;100.00;94903.81;4988697;28;20242;-74
2023/03/22 06:14:00;;;;;;;5.67;4.17;;;;;;;9.81;100.00;94907.50;4989804;28;20261;-75
2023/03/22 06:16:26;;;;;;;7.77;4.60;;;;;;;9.87;100.00;94906.72;4983878;28;20226;-74
2023/03/22 06:18:51;;;;;;;5.63;4.43;;;;;;;9.89;100.00;94910.75;4984863;28;20313;-74
2023/03/22 06:21:17;;;;;;;7.10;4.30;;;;;;;9.88;100.00;94910.94;5005527;28;20343;-74
2023/03/22 06:23:42;;;;;;;7.83;4.50;;;;;;;9.91;100.00;94906.13;4970528;28;20343;-76
2023/03/22 06:26:10;;;;;;;6.90;4.53;;;;;;;9.90;100.00;94911.56;5006332;28;20230;-75
2023/03/22 06:28:36;;;;;;;6.30;4.40;;;;;;;9.90;100.00;94904.53;5003691;28;20238;-75
2023/03/22 06:31:06;;;;;;;5.93;4.07;;;;;;;9.96;100.00;94908.13;4991705;28;20754;-76
2023/03/22 06:33:31;;;;;;;6.40;4.40;;;;;;;10.02;100.00;94920.44;4996320;28;20262;-75
2023/03/22 06:35:58;;;;;;;6.07;4.37;;;;;;;10.03;100.00;94916.84;4983350;28;20723;-74
2023/03/22 06:38:24;;;;;;;7.37;4.47;;;;;;;10.01;100.00;94922.25;5006732;28;22051;-75
2023/03/22 06:40:49;;;;;;;7.30;5.30;;;;;;;9.98;100.00;94924.47;4992630;28;21739;-74
2023/03/22 06:43:15;;;;;;;7.47;5.33;;;;;;;10.05;100.00;94925.28;4995282;28;20237;-75
2023/03/22 06:45:40;;;;;;;7.43;5.70;;;;;;;10.10;100.00;94925.53;5007573;28;20238;-74
2023/03/22 06:48:06;;;;;;;7.50;5.50;;;;;;;10.04;100.00;94926.28;4989944;28;20244;-73
2023/03/22 06:50:32;;;;;;;8.90;5.80;;;;;;;10.11;100.00;94934.97;5006197;28;20254;-74
2023/03/22 06:52:58;;;;;;;9.67;6.40;;;;;;;10.27;100.00;94923.38;5005002;28;20246;-75
2023/03/22 06:55:23;;;;;;;10.47;6.40;;;;;;;10.33;100.00;94926.00;5004235;28;20287;-74
2023/03/22 06:57:49;;;;;;;9.97;6.43;;;;;;;10.42;100.00;94930.06;5007615;28;20234;-74
2023/03/22 07:00:15;;;;;;;16.63;7.37;;;;;;;10.55;100.00;94932.72;5018619;28;20635;-74
2023/03/22 07:02:40;;;;;;;10.33;6.37;;;;;;;10.53;100.00;94936.53;5034578;28;20232;-74
2023/03/22 07:05:06;;;;;;;9.90;6.03;;;;;;;10.54;100.00;94946.78;5032019;28;20217;-74
2023/03/22 07:07:32;;;;;;;9.40;5.77;;;;;;;10.54;100.00;94944.16;5023422;28;21090;-74
2023/03/22 07:09:57;;;;;;;8.50;5.80;;;;;;;10.53;100.00;94944.38;5034525;28;20222;-74
2023/03/22 07:12:23;;;;;;;8.70;5.30;;;;;;;10.62;100.00;94954.47;5011318;28;20230;-75
2023/03/22 07:14:48;;;;;;;17.20;5.10;;;;;;;10.56;98.97;94951.81;5014969;28;20259;-74
2023/03/22 07:17:14;;;;;;;7.90;5.00;;;;;;;10.56;100.00;94949.19;5020779;28;20229;-74
2023/03/22 07:19:41;;;;;;;10.50;5.17;;;;;;;10.55;100.00;94951.03;5004375;28;20214;-74
2023/03/22 07:22:06;;;;;;;9.13;5.90;;;;;;;10.47;100.00;94953.81;5028383;28;20725;-74
2023/03/22 07:24:32;;;;;;;6.93;5.33;;;;;;;10.60;100.00;94956.44;5003734;28;20239;-75
2023/03/22 07:26:57;;;;;;;8.50;5.50;;;;;;;10.62;100.00;94958.88;4981859;28;21140;-75
2023/03/22 07:29:23;;;;;;;7.60;5.47;;;;;;;10.52;100.00;94961.06;5004785;28;20223;-75
2023/03/22 07:31:48;;;;;;;11.67;5.60;;;;;;;10.63;100.00;94963.09;5014293;28;20230;-74
2023/03/22 07:34:15;;;;;;;8.50;5.80;;;;;;;10.63;100.00;94960.47;4999942;28;20254;-74
2023/03/22 07:36:40;;;;;;;8.63;5.23;;;;;;;10.51;99.86;94957.63;4996486;28;20788;-74
2023/03/22 07:39:06;;;;;;;7.83;5.27;;;;;;;10.56;99.86;94968.31;5005945;28;20226;-74
2023/03/22 07:41:32;;;;;;;9.60;6.70;;;;;;;10.56;100.00;94963.09;4999323;28;20238;-74
2023/03/22 07:43:57;;;;;;;11.27;7.80;;;;;;;10.51;100.00;94965.50;4990167;28;20235;-74
2023/03/22 07:46:23;;;;;;;12.80;8.20;;;;;;;10.51;100.00;94969.91;4989214;28;20313;-75
2023/03/22 07:48:48;;;;;;;11.23;6.90;;;;;;;10.51;100.00;94968.09;4983242;28;20807;-75
2023/03/22 07:51:14;;;;;;;9.40;5.63;;;;;;;10.43;99.38;94981.38;5018994;28;20226;-73
2023/03/22 07:53:39;;;;;;;10.90;5.73;;;;;;;10.47;100.00;94973.94;5000465;28;20233;-73
2023/03/22 07:56:05;;;;;;;10.43;6.90;;;;;;;10.45;100.00;94979.38;4999741;28;20226;-74
2023/03/22 07:58:31;;;;;;;10.87;6.90;;;;;;;10.33;100.00;94978.31;4989702;28;20237;-74
2023/03/22 08:00:57;;;;;;;9.73;6.70;;;;;;;10.39;100.00;94984.59;4996550;28;20230;-74
2023/03/22 08:03:22;;;;;;;10.93;6.37;;;;;;;10.46;100.00;94983.59;5005658;28;20227;-73
2023/03/22 08:05:48;;;;;;;9.63;6.63;;;;;;;10.50;100.00;94986.63;4968891;28;20328;-73
2023/03/22 08:08:14;;;;;;;10.30;6.93;;;;;;;10.50;100.00;94986.63;4972510;28;20246;-73
2023/03/22 08:10:39;;;;;;;10.93;7.23;;;;;;;10.43;100.00;94984.00;5006590;28;20276;-74
2023/03/22 08:13:05;;;;;;;11.57;6.80;;;;;;;10.45;100.00;94987.22;4997494;28;20233;-73
2023/03/22 08:15:31;;;;;;;10.57;7.03;;;;;;;10.41;100.00;94980.75;4990320;28;20238;-76
2023/03/22 08:17:59;;;;;;;11.83;6.50;;;;;;;10.45;100.00;94982.00;5004645;28;20242;-74
2023/03/22 08:20:26;;;;;;;11.10;6.73;;;;;;;10.47;100.00;94987.00;5007552;28;20284;-75
2023/03/22 08:22:52;;;;;;;12.10;7.00;;;;;;;10.50;100.00;94976.97;4997338;28;20742;-73
2023/03/22 08:25:17;;;;;;;10.80;7.10;;;;;;;10.46;100.00;94988.03;5006533;28;22454;-74
2023/03/22 08:27:43;;;;;;;10.77;7.23;;;;;;;10.45;100.00;94989.03;4998238;28;20303;-74
2023/03/22 08:30:09;;;;;;;11.10;7.10;;;;;;;10.52;100.00;94985.44;4989619;28;20238;-74
2023/03/22 08:32:35;;;;;;;12.67;7.37;;;;;;;10.54;100.00;94985.22;5000005;28;20231;-74
2023/03/22 08:35:00;;;;;;;13.50;8.07;;;;;;;10.53;100.00;94989.66;4978509;28;20723;-74
2023/03/22 08:37:26;;;;;;;14.63;8.00;;;;;;;10.51;100.00;94991.66;4996557;28;20234;-75
2023/03/22 08:39:54;;;;;;;12.10;7.50;;;;;;;10.55;100.00;94998.13;5005650;28;20672;-74
2023/03/22 08:42:20;;;;;;;13.83;8.27;;;;;;;10.62;100.00;94995.53;5005243;28;20284;-73
2023/03/22 08:44:45;;;;;;;13.90;8.30;;;;;;;10.62;100.00;94987.66;5011585;28;20234;-73
2023/03/22 08:47:12;;;;;;;14.00;8.37;;;;;;;10.65;100.00;94993.31;5005960;28;20237;-74
2023/03/22 08:49:37;;;;;;;14.00;8.17;;;;;;;10.69;99.75;94994.53;5011247;28;20328;-73
2023/03/22 08:52:06;;;;;;;18.50;8.67;;;;;;;10.72;99.27;94994.13;5014403;28;20236;-74
2023/03/22 08:54:32;;;;;;;15.43;9.00;;;;;;;10.74;99.20;94996.56;5013579;28;20221;-74
2023/03/22 08:56:58;;;;;;;14.73;9.00;;;;;;;10.77;99.58;95001.41;5017147;28;21109;-73
2023/03/22 08:59:23;;;;;;;16.17;9.67;;;;;;;10.80;99.50;94998.38;5007356;28;20237;-74
2023/03/22 09:01:49;;;;;;;15.80;9.77;;;;;;;10.65;99.96;94998.53;5033319;28;20222;-74
2023/03/22 09:04:14;;;;;;;12.27;8.07;;;;;;;10.56;100.00;95002.34;5031002;28;20245;-74
2023/03/22 09:06:43;;;;;;;11.43;7.00;;;;;;;10.50;100.00;95000.53;5013456;28;20222;-74
2023/03/22 09:09:08;;;;;;;11.70;7.00;;;;;;;10.60;100.00;94998.31;5040654;28;20234;-73
2023/03/22 09:11:36;;;;;;;11.33;7.07;;;;;;;10.65;100.00;95003.78;5022016;28;20773;-74
2023/03/22 09:14:01;;;;;;;12.20;7.37;;;;;;;10.53;100.00;95007.19;5020248;28;20228;-74
2023/03/22 09:16:26;;;;;;;14.80;7.83;;;;;;;10.51;100.00;95009.16;5033448;28;20257;-74
2023/03/22 09:18:52;;;;;;;12.67;7.70;;;;;;;10.62;100.00;95017.28;5008173;28;20606;-73
2023/03/22 09:21:17;;;;;;;13.63;7.93;;;;;;;10.59;100.00;95020.28;5034654;28;20229;-73
2023/03/22 09:23:46;;;;;;;11.50;7.67;;;;;;;10.57;100.00;95021.47;5030746;28;20241;-74
2023/03/22 09:26:12;;;;;;;12.50;7.77;;;;;;;10.67;100.00;95016.69;5023419;28;20229;-74
2023/03/22 09:28:37;;;;;;;24.17;15.60;;;;;;;10.74;100.00;95012.25;5008741;28;20233;-74
2023/03/22 09:31:05;;;;;;;14.60;9.17;;;;;;;10.75;100.00;95013.88;5003803;28;20224;-74
2023/03/22 09:33:31;;;;;;;12.07;8.30;;;;;;;10.79;100.00;95010.66;5022246;28;20316;-75
2023/03/22 09:35:56;;;;;;;11.70;7.20;;;;;;;10.84;100.00;95013.47;5007120;28;20234;-74
2023/03/22 09:38:23;;;;;;;9.67;6.53;;;;;;;10.72;99.96;95015.06;5013365;28;20218;-74
2023/03/22 09:40:59;;;;;;;11.23;6.50;;;;;;;10.71;99.42;95013.47;5001323;28;20257;-73
2023/03/22 09:43:54;;;;;;;10.20;6.37;;;;;;;10.60;98.73;95015.84;5002473;28;20233;-73
2023/03/22 09:46:26;;;;;;;14.00;7.40;;;;;;;10.63;98.20;95015.44;5014609;28;20270;-74
2023/03/22 09:48:51;;;;;;;12.77;7.30;;;;;;;10.77;99.03;95006.66;5033724;28;20226;-75
2023/03/22 09:51:40;;;;;;;11.77;7.37;;;;;;;10.84;98.58;95013.47;5012127;28;20287;-74
2023/03/22 09:54:18;;;;;;;13.13;8.07;;;;;;;10.95;98.73;95016.53;5027686;28;20229;-73
2023/03/22 09:56:46;;;;;;;15.53;8.27;;;;;;;11.04;99.80;95012.72;5050528;28;20688;-74
2023/03/22 09:59:41;;;;;;;12.23;8.13;;;;;;;11.05;98.09;95015.16;5034318;28;20243;-74
2023/03/22 10:02:45;;;;;;;10.73;6.73;;;;;;;11.07;96.69;95017.56;5026965;28;20237;-75
2023/03/22 10:05:38;;;;;;;12.10;7.47;;;;;;;11.10;98.73;95022.41;5024191;28;20229;-73
2023/03/22 10:08:21;;;;;;;12.73;8.07;;;;;;;11.12;97.10;95029.06;5023106;28;20241;-73
2023/03/22 10:10:47;;;;;;;15.90;10.43;;;;;;;11.13;98.39;95022.00;5031674;28;20233;-74
2023/03/22 10:13:31;;;;;;;12.23;7.83;;;;;;;11.06;96.11;95021.16;5015347;28;20244;-74
2023/03/22 10:15:58;;;;;;;11.70;7.70;;;;;;;11.04;96.05;95029.22;5019921;28;20225;-74
2023/03/22 10:18:25;;;;;;;10.13;6.80;;;;;;;10.92;95.88;95024.78;5035659;28;20249;-73
2023/03/22 10:21:04;;;;;;;11.07;7.00;;;;;;;10.99;95.62;95026.41;5036805;28;20225;-75
2023/03/22 10:23:41;;;;;;;14.57;7.13;;;;;;;10.99;97.42;95033.44;5032648;28;20259;-75
2023/03/22 10:26:06;;;;;;;12.10;7.47;;;;;;;10.96;97.16;95023.38;5038610;28;20597;-74
2023/03/22 10:28:40;;;;;;;10.13;6.47;;;;;;;10.96;95.88;95026.00;5014632;28;20302;-74
2023/03/22 10:31:05;;;;;;;15.13;10.57;;;;;;;11.03;96.74;95026.81;5009883;28;20219;-74
2023/03/22 10:33:49;;;;;;;18.43;11.13;;;;;;;11.10;97.49;95030.25;5018974;28;20225;-73
2023/03/22 10:36:15;;;;;;;12.50;8.27;;;;;;;11.14;98.03;95027.03;5003192;28;20250;-75
2023/03/22 10:38:48;;;;;;;12.17;6.87;;;;;;;11.13;96.89;95027.25;5001723;28;20237;-73
2023/03/22 10:41:15;;;;;;;9.13;5.27;;;;;;;11.00;94.92;95024.59;5032328;28;20230;-75
2023/03/22 10:43:41;;;;;;;10.73;5.37;;;;;;;10.93;94.68;95021.16;5016950;28;20656;-74
2023/03/22 10:46:09;;;;;;;9.70;5.57;;;;;;;11.05;97.01;95025.63;5014795;28;20221;-74
2023/03/22 10:48:39;;;;;;;7.17;4.90;;;;;;;11.05;95.54;95027.44;5015056;28;20237;-73
2023/03/22 10:51:05;;;;;;;9.37;4.50;;;;;;;11.12;94.13;95029.06;5042415;28;20222;-74
2023/03/22 10:53:36;;;;;;;6.37;4.60;;;;;;;11.14;95.75;95031.47;5001801;28;20766;-75
2023/03/22 10:56:02;;;;;;;8.37;4.60;;;;;;;11.17;95.61;95028.44;5033907;28;20229;-75
2023/03/22 10:58:31;;;;;;;7.97;4.70;;;;;;;11.22;95.73;95026.84;5034186;28;20311;-74
2023/03/22 11:00:59;;;;;;;9.33;4.77;;;;;;;11.22;95.88;95015.56;5004155;28;20230;-74
2023/03/22 11:03:41;;;;;;;8.50;5.00;;;;;;;11.13;94.82;95019.38;4998981;28;20365;-75
2023/03/22 11:06:14;;;;;;;7.10;4.73;;;;;;;11.09;93.20;95020.78;5009410;28;20259;-75
2023/03/22 11:08:45;;;;;;;7.97;4.90;;;;;;;11.21;94.98;95013.94;5014050;28;20226;-74
2023/03/22 11:11:18;;;;;;;28.83;13.80;;;;;;;11.21;94.92;95013.94;5033180;28;20698;-74
2023/03/22 11:13:49;;;;;;;9.50;5.53;;;;;;;11.16;95.05;95016.34;5037484;28;20239;-75
2023/03/22 11:16:16;;;;;;;7.77;5.07;;;;;;;11.15;92.04;95018.16;5016378;28;20341;-73
2023/03/22 11:18:41;;;;;;;5.63;4.20;;;;;;;11.08;92.15;95019.97;5009770;28;20715;-74
2023/03/22 11:21:09;;;;;;;5.20;3.80;;;;;;;11.15;94.59;95020.78;5036547;28;20222;-75
2023/03/22 11:23:37;;;;;;;5.27;3.70;;;;;;;11.10;93.75;95017.16;4997712;28;20295;-73
2023/03/22 11:26:10;;;;;;;6.67;4.07;;;;;;;11.11;95.21;95010.91;5019553;28;20621;-73
2023/03/22 11:28:45;;;;;;;9.47;4.37;;;;;;;11.04;96.89;95015.31;5031834;28;20238;-74
2023/03/22 11:31:18;;;;;;;9.20;5.17;;;;;;;10.96;93.82;95012.91;5000250;28;20222;-75
2023/03/22 11:33:54;;;;;;;10.77;5.03;;;;;;;10.98;94.96;95006.47;5025484;28;20237;-74